sensor_id;sensor_type;location;lat;lon;timestamp;P1;durP1;ratioP1;P2;durP2;ratioP2
63714;SDS011;49858;48.956;9.076;2023-02-01T00:00:12;3.92;;;2.35;;
63714;SDS011;49858;48.956;9.076;2023-02-01T00:02:40;3.95;;;2.63;;
63714;SDS011;49858;48.956;9.076;2023-02-01T00:05:09;4.25;;;2.50;;
63714;SDS011;49858;48.956;9.076;2023-02-01T00:07:37;3.85;;;2.83;;
63714;SDS011;49858;48.956;9.076;2023-02-01T00:10:05;4.20;;;2.72;;
63714;SDS011;49858;48.956;9.076;2023-02-01T00:12:35;3.10;;;2.47;;
63714;SDS011;49858;48.956;9.076;2023-02-01T00:15:04;2.72;;;2.22;;
63714;SDS011;49858;48.956;9.076;2023-02-01T00:17:35;3.78;;;2.85;;
63714;SDS011;49858;48.956;9.076;2023-02-01T00:20:03;3.78;;;1.77;;
63714;SDS011;49858;48.956;9.076;2023-02-01T00:22:31;4.72;;;2.60;;
63714;SDS011;49858;48.956;9.076;2023-02-01T00:24:59;5.95;;;3.35;;
63714;SDS011;49858;48.956;9.076;2023-02-01T00:27:27;3.55;;;2.13;;
63714;SDS011;49858;48.956;9.076;2023-02-01T00:29:55;7.20;;;3.67;;
63714;SDS011;49858;48.956;9.076;2023-02-01T00:32:22;6.88;;;3.65;;
63714;SDS011;49858;48.956;9.076;2023-02-01T00:34:51;5.32;;;3.20;;
63714;SDS011;49858;48.956;9.076;2023-02-01T00:37:19;5.65;;;3.10;;
63714;SDS011;49858;48.956;9.076;2023-02-01T00:39:47;5.95;;;4.05;;
63714;SDS011;49858;48.956;9.076;2023-02-01T00:42:15;5.55;;;3.40;;
63714;SDS011;49858;48.956;9.076;2023-02-01T00:44:44;3.80;;;2.92;;
63714;SDS011;49858;48.956;9.076;2023-02-01T00:47:13;5.68;;;2.90;;
63714;SDS011;49858;48.956;9.076;2023-02-01T00:49:40;5.32;;;3.13;;
63714;SDS011;49858;48.956;9.076;2023-02-01T00:52:10;5.05;;;3.40;;
63714;SDS011;49858;48.956;9.076;2023-02-01T00:54:37;5.53;;;4.10;;
63714;SDS011;49858;48.956;9.076;2023-02-01T00:57:05;4.88;;;3.63;;
63714;SDS011;49858;48.956;9.076;2023-02-01T00:59:34;4.80;;;3.08;;
63714;SDS011;49858;48.956;9.076;2023-02-01T01:02:01;4.53;;;2.75;;
63714;SDS011;49858;48.956;9.076;2023-02-01T01:04:29;5.00;;;2.85;;
63714;SDS011;49858;48.956;9.076;2023-02-01T01:06:57;4.63;;;3.40;;
63714;SDS011;49858;48.956;9.076;2023-02-01T01:09:26;5.47;;;3.40;;
63714;SDS011;49858;48.956;9.076;2023-02-01T01:11:54;5.05;;;3.17;;
63714;SDS011;49858;48.956;9.076;2023-02-01T01:14:23;5.32;;;3.03;;
63714;SDS011;49858;48.956;9.076;2023-02-01T01:16:50;5.10;;;3.05;;
63714;SDS011;49858;48.956;9.076;2023-02-01T01:19:18;5.47;;;3.22;;
63714;SDS011;49858;48.956;9.076;2023-02-01T01:21:46;4.47;;;2.85;;
63714;SDS011;49858;48.956;9.076;2023-02-01T01:24:14;4.22;;;2.70;;
63714;SDS011;49858;48.956;9.076;2023-02-01T01:26:43;3.83;;;2.92;;
63714;SDS011;49858;48.956;9.076;2023-02-01T01:29:11;2.80;;;2.13;;
63714;SDS011;49858;48.956;9.076;2023-02-01T01:31:39;3.17;;;2.38;;
63714;SDS011;49858;48.956;9.076;2023-02-01T01:34:08;4.55;;;3.00;;
63714;SDS011;49858;48.956;9.076;2023-02-01T01:36:36;4.78;;;2.55;;
63714;SDS011;49858;48.956;9.076;2023-02-01T01:39:04;4.45;;;3.15;;
63714;SDS011;49858;48.956;9.076;2023-02-01T01:41:32;4.88;;;3.33;;
63714;SDS011;49858;48.956;9.076;2023-02-01T01:47:15;4.22;;;2.85;;
63714;SDS011;49858;48.956;9.076;2023-02-01T01:49:43;5.63;;;2.65;;
63714;SDS011;49858;48.956;9.076;2023-02-01T01:52:12;5.03;;;3.10;;
63714;SDS011;49858;48.956;9.076;2023-02-01T01:54:40;4.32;;;1.85;;
63714;SDS011;49858;48.956;9.076;2023-02-01T01:57:14;3.90;;;2.30;;
63714;SDS011;49858;48.956;9.076;2023-02-01T01:59:46;4.95;;;2.35;;
63714;SDS011;49858;48.956;9.076;2023-02-01T02:02:21;2.85;;;2.15;;
63714;SDS011;49858;48.956;9.076;2023-02-01T02:04:49;3.65;;;2.30;;
63714;SDS011;49858;48.956;9.076;2023-02-01T02:07:19;5.10;;;2.95;;
63714;SDS011;49858;48.956;9.076;2023-02-01T02:09:52;5.78;;;2.83;;
63714;SDS011;49858;48.956;9.076;2023-02-01T02:12:27;3.13;;;2.10;;
63714;SDS011;49858;48.956;9.076;2023-02-01T02:14:55;5.90;;;3.35;;
63714;SDS011;49858;48.956;9.076;2023-02-01T02:17:28;4.97;;;3.13;;
63714;SDS011;49858;48.956;9.076;2023-02-01T02:20:20;4.75;;;2.83;;
63714;SDS011;49858;48.956;9.076;2023-02-01T02:26:23;4.13;;;2.78;;
63714;SDS011;49858;48.956;9.076;2023-02-01T02:32:23;5.07;;;2.28;;
63714;SDS011;49858;48.956;9.076;2023-02-01T02:35:19;5.63;;;2.72;;
63714;SDS011;49858;48.956;9.076;2023-02-01T02:37:54;4.32;;;2.20;;
63714;SDS011;49858;48.956;9.076;2023-02-01T02:40:31;5.20;;;2.53;;
63714;SDS011;49858;48.956;9.076;2023-02-01T02:43:05;5.40;;;2.97;;
63714;SDS011;49858;48.956;9.076;2023-02-01T02:46:01;6.47;;;2.45;;
63714;SDS011;49858;48.956;9.076;2023-02-01T02:48:54;2.80;;;2.17;;
63714;SDS011;49858;48.956;9.076;2023-02-01T02:51:30;4.57;;;2.63;;
63714;SDS011;49858;48.956;9.076;2023-02-01T02:54:21;3.38;;;2.33;;
63714;SDS011;49858;48.956;9.076;2023-02-01T02:57:22;3.33;;;2.30;;
63714;SDS011;49858;48.956;9.076;2023-02-01T03:00:14;5.30;;;2.50;;
63714;SDS011;49858;48.956;9.076;2023-02-01T03:03:02;3.60;;;2.17;;
63714;SDS011;49858;48.956;9.076;2023-02-01T03:05:49;3.88;;;2.65;;
63714;SDS011;49858;48.956;9.076;2023-02-01T03:08:20;4.68;;;1.90;;
63714;SDS011;49858;48.956;9.076;2023-02-01T03:10:53;4.22;;;2.30;;
63714;SDS011;49858;48.956;9.076;2023-02-01T03:13:30;3.60;;;2.78;;
63714;SDS011;49858;48.956;9.076;2023-02-01T03:16:04;5.18;;;2.78;;
63714;SDS011;49858;48.956;9.076;2023-02-01T03:18:42;5.45;;;2.70;;
63714;SDS011;49858;48.956;9.076;2023-02-01T03:21:17;2.42;;;1.90;;
63714;SDS011;49858;48.956;9.076;2023-02-01T03:23:50;3.60;;;2.25;;
63714;SDS011;49858;48.956;9.076;2023-02-01T03:26:20;2.33;;;1.83;;
63714;SDS011;49858;48.956;9.076;2023-02-01T03:28:52;3.30;;;1.63;;
63714;SDS011;49858;48.956;9.076;2023-02-01T03:31:23;3.30;;;1.80;;
63714;SDS011;49858;48.956;9.076;2023-02-01T03:33:51;4.32;;;2.40;;
63714;SDS011;49858;48.956;9.076;2023-02-01T03:36:20;4.35;;;2.20;;
63714;SDS011;49858;48.956;9.076;2023-02-01T03:38:58;2.90;;;1.75;;
63714;SDS011;49858;48.956;9.076;2023-02-01T03:41:33;2.45;;;1.63;;
63714;SDS011;49858;48.956;9.076;2023-02-01T03:44:08;3.63;;;1.98;;
63714;SDS011;49858;48.956;9.076;2023-02-01T03:46:41;4.30;;;2.28;;
63714;SDS011;49858;48.956;9.076;2023-02-01T03:49:17;3.78;;;1.70;;
63714;SDS011;49858;48.956;9.076;2023-02-01T03:51:49;2.72;;;1.80;;
63714;SDS011;49858;48.956;9.076;2023-02-01T03:54:21;2.40;;;1.50;;
63714;SDS011;49858;48.956;9.076;2023-02-01T03:56:51;3.30;;;2.65;;
63714;SDS011;49858;48.956;9.076;2023-02-01T03:59:22;1.40;;;1.17;;
63714;SDS011;49858;48.956;9.076;2023-02-01T04:01:50;3.17;;;2.20;;
63714;SDS011;49858;48.956;9.076;2023-02-01T04:04:19;3.17;;;2.00;;
63714;SDS011;49858;48.956;9.076;2023-02-01T04:06:51;2.63;;;1.67;;
63714;SDS011;49858;48.956;9.076;2023-02-01T04:09:21;2.30;;;1.77;;
63714;SDS011;49858;48.956;9.076;2023-02-01T04:11:49;2.72;;;1.60;;
63714;SDS011;49858;48.956;9.076;2023-02-01T04:14:16;5.15;;;1.90;;
63714;SDS011;49858;48.956;9.076;2023-02-01T04:16:44;4.15;;;2.55;;
63714;SDS011;49858;48.956;9.076;2023-02-01T04:19:12;3.72;;;2.60;;
63714;SDS011;49858;48.956;9.076;2023-02-01T04:21:40;4.90;;;2.55;;
63714;SDS011;49858;48.956;9.076;2023-02-01T04:24:08;3.88;;;2.80;;
63714;SDS011;49858;48.956;9.076;2023-02-01T04:26:38;5.30;;;3.03;;
63714;SDS011;49858;48.956;9.076;2023-02-01T04:29:07;4.38;;;2.65;;
63714;SDS011;49858;48.956;9.076;2023-02-01T04:31:36;3.38;;;2.40;;
63714;SDS011;49858;48.956;9.076;2023-02-01T04:34:04;3.70;;;2.72;;
63714;SDS011;49858;48.956;9.076;2023-02-01T04:36:31;4.43;;;2.88;;
63714;SDS011;49858;48.956;9.076;2023-02-01T04:38:59;3.65;;;2.50;;
63714;SDS011;49858;48.956;9.076;2023-02-01T04:41:27;6.53;;;2.50;;
63714;SDS011;49858;48.956;9.076;2023-02-01T04:43:57;4.85;;;3.22;;
63714;SDS011;49858;48.956;9.076;2023-02-01T04:46:25;5.13;;;2.80;;
63714;SDS011;49858;48.956;9.076;2023-02-01T04:48:53;6.38;;;2.88;;
63714;SDS011;49858;48.956;9.076;2023-02-01T04:51:21;3.63;;;2.42;;
63714;SDS011;49858;48.956;9.076;2023-02-01T04:53:49;3.38;;;2.40;;
63714;SDS011;49858;48.956;9.076;2023-02-01T04:56:16;4.70;;;2.13;;
63714;SDS011;49858;48.956;9.076;2023-02-01T04:58:44;2.25;;;1.77;;
63714;SDS011;49858;48.956;9.076;2023-02-01T05:01:13;3.60;;;2.50;;
63714;SDS011;49858;48.956;9.076;2023-02-01T05:03:41;3.50;;;2.00;;
63714;SDS011;49858;48.956;9.076;2023-02-01T05:06:09;3.63;;;1.85;;
63714;SDS011;49858;48.956;9.076;2023-02-01T05:08:37;3.90;;;2.30;;
63714;SDS011;49858;48.956;9.076;2023-02-01T05:11:05;4.53;;;2.65;;
63714;SDS011;49858;48.956;9.076;2023-02-01T05:13:32;3.35;;;2.55;;
63714;SDS011;49858;48.956;9.076;2023-02-01T05:16:16;3.47;;;2.45;;
63714;SDS011;49858;48.956;9.076;2023-02-01T05:18:46;6.13;;;3.10;;
63714;SDS011;49858;48.956;9.076;2023-02-01T05:21:14;5.15;;;3.10;;
63714;SDS011;49858;48.956;9.076;2023-02-01T05:23:42;4.07;;;2.75;;
63714;SDS011;49858;48.956;9.076;2023-02-01T05:26:27;4.25;;;3.17;;
63714;SDS011;49858;48.956;9.076;2023-02-01T05:28:55;5.75;;;3.30;;
63714;SDS011;49858;48.956;9.076;2023-02-01T05:31:26;4.43;;;2.63;;
63714;SDS011;49858;48.956;9.076;2023-02-01T05:33:54;4.35;;;2.85;;
63714;SDS011;49858;48.956;9.076;2023-02-01T05:36:22;5.10;;;2.95;;
63714;SDS011;49858;48.956;9.076;2023-02-01T05:38:50;4.28;;;2.53;;
63714;SDS011;49858;48.956;9.076;2023-02-01T05:41:18;4.95;;;2.80;;
63714;SDS011;49858;48.956;9.076;2023-02-01T05:43:45;4.25;;;2.88;;
63714;SDS011;49858;48.956;9.076;2023-02-01T05:46:13;4.35;;;2.80;;
63714;SDS011;49858;48.956;9.076;2023-02-01T05:48:43;5.82;;;3.05;;
63714;SDS011;49858;48.956;9.076;2023-02-01T05:51:11;3.85;;;2.67;;
63714;SDS011;49858;48.956;9.076;2023-02-01T05:53:39;3.13;;;1.95;;
63714;SDS011;49858;48.956;9.076;2023-02-01T05:56:07;3.28;;;2.20;;
63714;SDS011;49858;48.956;9.076;2023-02-01T05:58:35;2.20;;;1.95;;
63714;SDS011;49858;48.956;9.076;2023-02-01T06:01:03;2.20;;;1.60;;
63714;SDS011;49858;48.956;9.076;2023-02-01T06:03:31;2.63;;;1.67;;
63714;SDS011;49858;48.956;9.076;2023-02-01T06:06:00;4.13;;;2.60;;
63714;SDS011;49858;48.956;9.076;2023-02-01T06:08:28;4.57;;;2.83;;
63714;SDS011;49858;48.956;9.076;2023-02-01T06:10:57;2.58;;;1.95;;
63714;SDS011;49858;48.956;9.076;2023-02-01T06:13:25;2.95;;;2.17;;
63714;SDS011;49858;48.956;9.076;2023-02-01T06:15:53;4.70;;;3.08;;
63714;SDS011;49858;48.956;9.076;2023-02-01T06:18:22;6.50;;;3.80;;
63714;SDS011;49858;48.956;9.076;2023-02-01T06:20:53;8.32;;;3.50;;
63714;SDS011;49858;48.956;9.076;2023-02-01T06:23:22;6.38;;;4.32;;
63714;SDS011;49858;48.956;9.076;2023-02-01T06:25:51;7.18;;;3.90;;
63714;SDS011;49858;48.956;9.076;2023-02-01T06:28:19;6.88;;;4.03;;
63714;SDS011;49858;48.956;9.076;2023-02-01T06:30:47;10.38;;;5.63;;
63714;SDS011;49858;48.956;9.076;2023-02-01T06:33:15;8.25;;;3.97;;
63714;SDS011;49858;48.956;9.076;2023-02-01T06:35:46;10.77;;;4.05;;
63714;SDS011;49858;48.956;9.076;2023-02-01T06:38:14;8.35;;;4.13;;
63714;SDS011;49858;48.956;9.076;2023-02-01T06:40:43;9.88;;;4.90;;
63714;SDS011;49858;48.956;9.076;2023-02-01T06:43:11;10.82;;;5.47;;
63714;SDS011;49858;48.956;9.076;2023-02-01T06:45:39;8.15;;;5.07;;
63714;SDS011;49858;48.956;9.076;2023-02-01T06:48:08;7.60;;;4.10;;
63714;SDS011;49858;48.956;9.076;2023-02-01T06:50:35;6.03;;;3.70;;
63714;SDS011;49858;48.956;9.076;2023-02-01T06:53:03;5.82;;;4.13;;
63714;SDS011;49858;48.956;9.076;2023-02-01T06:55:32;8.10;;;3.85;;
63714;SDS011;49858;48.956;9.076;2023-02-01T06:58:02;11.82;;;3.42;;
63714;SDS011;49858;48.956;9.076;2023-02-01T07:00:29;12.10;;;6.05;;
63714;SDS011;49858;48.956;9.076;2023-02-01T07:02:58;11.68;;;4.47;;
63714;SDS011;49858;48.956;9.076;2023-02-01T07:05:26;6.25;;;3.67;;
63714;SDS011;49858;48.956;9.076;2023-02-01T07:07:56;13.95;;;5.50;;
63714;SDS011;49858;48.956;9.076;2023-02-01T07:10:24;8.63;;;4.57;;
63714;SDS011;49858;48.956;9.076;2023-02-01T07:12:52;13.55;;;6.63;;
63714;SDS011;49858;48.956;9.076;2023-02-01T07:15:25;7.47;;;3.47;;
63714;SDS011;49858;48.956;9.076;2023-02-01T07:17:55;13.65;;;5.97;;
63714;SDS011;49858;48.956;9.076;2023-02-01T07:20:24;10.85;;;5.15;;
63714;SDS011;49858;48.956;9.076;2023-02-01T07:22:54;11.20;;;5.07;;
63714;SDS011;49858;48.956;9.076;2023-02-01T07:25:23;13.18;;;4.90;;
63714;SDS011;49858;48.956;9.076;2023-02-01T07:27:51;6.35;;;3.63;;
63714;SDS011;49858;48.956;9.076;2023-02-01T07:30:19;9.82;;;4.15;;
63714;SDS011;49858;48.956;9.076;2023-02-01T07:32:49;6.90;;;3.85;;
63714;SDS011;49858;48.956;9.076;2023-02-01T07:35:16;10.65;;;4.50;;
63714;SDS011;49858;48.956;9.076;2023-02-01T07:37:44;13.38;;;5.22;;
63714;SDS011;49858;48.956;9.076;2023-02-01T07:40:12;11.75;;;5.93;;
63714;SDS011;49858;48.956;9.076;2023-02-01T07:42:40;11.00;;;5.68;;
63714;SDS011;49858;48.956;9.076;2023-02-01T07:45:08;10.73;;;5.20;;
63714;SDS011;49858;48.956;9.076;2023-02-01T07:47:46;16.30;;;6.38;;
63714;SDS011;49858;48.956;9.076;2023-02-01T07:50:16;13.57;;;6.82;;
63714;SDS011;49858;48.956;9.076;2023-02-01T07:52:44;10.35;;;4.85;;
63714;SDS011;49858;48.956;9.076;2023-02-01T07:55:12;4.40;;;3.13;;
63714;SDS011;49858;48.956;9.076;2023-02-01T07:57:40;8.82;;;3.95;;
63714;SDS011;49858;48.956;9.076;2023-02-01T08:00:09;9.45;;;4.38;;
63714;SDS011;49858;48.956;9.076;2023-02-01T08:02:58;9.82;;;5.25;;
63714;SDS011;49858;48.956;9.076;2023-02-01T08:05:26;10.00;;;5.28;;
63714;SDS011;49858;48.956;9.076;2023-02-01T08:07:54;14.60;;;6.65;;
63714;SDS011;49858;48.956;9.076;2023-02-01T08:10:25;8.48;;;4.85;;
63714;SDS011;49858;48.956;9.076;2023-02-01T08:12:56;10.88;;;3.83;;
63714;SDS011;49858;48.956;9.076;2023-02-01T08:15:26;14.57;;;5.95;;
63714;SDS011;49858;48.956;9.076;2023-02-01T08:17:54;14.15;;;6.88;;
63714;SDS011;49858;48.956;9.076;2023-02-01T08:20:24;11.13;;;5.57;;
63714;SDS011;49858;48.956;9.076;2023-02-01T08:22:53;15.23;;;6.10;;
63714;SDS011;49858;48.956;9.076;2023-02-01T08:25:21;16.05;;;6.97;;
63714;SDS011;49858;48.956;9.076;2023-02-01T08:27:50;9.57;;;3.95;;
63714;SDS011;49858;48.956;9.076;2023-02-01T08:30:19;10.43;;;4.72;;
63714;SDS011;49858;48.956;9.076;2023-02-01T08:32:48;10.63;;;4.93;;
63714;SDS011;49858;48.956;9.076;2023-02-01T08:35:16;12.63;;;5.78;;
63714;SDS011;49858;48.956;9.076;2023-02-01T08:37:45;10.15;;;4.40;;
63714;SDS011;49858;48.956;9.076;2023-02-01T08:40:13;11.60;;;5.68;;
63714;SDS011;49858;48.956;9.076;2023-02-01T08:42:41;10.82;;;5.00;;
63714;SDS011;49858;48.956;9.076;2023-02-01T08:45:18;8.32;;;5.22;;
63714;SDS011;49858;48.956;9.076;2023-02-01T08:47:50;10.02;;;4.05;;
63714;SDS011;49858;48.956;9.076;2023-02-01T08:50:18;11.35;;;4.05;;
63714;SDS011;49858;48.956;9.076;2023-02-01T08:52:48;9.30;;;4.13;;
63714;SDS011;49858;48.956;9.076;2023-02-01T08:55:16;17.25;;;5.07;;
63714;SDS011;49858;48.956;9.076;2023-02-01T08:57:44;11.38;;;5.15;;
63714;SDS011;49858;48.956;9.076;2023-02-01T09:00:13;7.90;;;3.33;;
63714;SDS011;49858;48.956;9.076;2023-02-01T09:02:42;7.30;;;3.42;;
63714;SDS011;49858;48.956;9.076;2023-02-01T09:05:13;9.75;;;3.78;;
63714;SDS011;49858;48.956;9.076;2023-02-01T09:07:42;7.15;;;4.20;;
63714;SDS011;49858;48.956;9.076;2023-02-01T09:10:12;9.30;;;4.57;;
63714;SDS011;49858;48.956;9.076;2023-02-01T09:12:42;8.00;;;3.42;;
63714;SDS011;49858;48.956;9.076;2023-02-01T09:15:10;6.47;;;3.28;;
63714;SDS011;49858;48.956;9.076;2023-02-01T09:17:38;13.68;;;4.38;;
63714;SDS011;49858;48.956;9.076;2023-02-01T09:20:08;9.50;;;5.03;;
63714;SDS011;49858;48.956;9.076;2023-02-01T09:22:37;13.00;;;5.18;;
63714;SDS011;49858;48.956;9.076;2023-02-01T09:25:06;7.80;;;3.85;;
63714;SDS011;49858;48.956;9.076;2023-02-01T09:27:36;7.50;;;3.78;;
63714;SDS011;49858;48.956;9.076;2023-02-01T09:30:04;17.52;;;5.90;;
63714;SDS011;49858;48.956;9.076;2023-02-01T09:32:35;10.88;;;3.90;;
63714;SDS011;49858;48.956;9.076;2023-02-01T09:35:03;10.95;;;4.93;;
63714;SDS011;49858;48.956;9.076;2023-02-01T09:37:31;18.55;;;5.28;;
63714;SDS011;49858;48.956;9.076;2023-02-01T09:39:59;11.55;;;4.70;;
63714;SDS011;49858;48.956;9.076;2023-02-01T09:42:33;8.75;;;4.43;;
63714;SDS011;49858;48.956;9.076;2023-02-01T09:45:15;16.25;;;4.85;;
63714;SDS011;49858;48.956;9.076;2023-02-01T09:47:50;7.65;;;2.33;;
63714;SDS011;49858;48.956;9.076;2023-02-01T09:50:21;6.55;;;3.53;;
63714;SDS011;49858;48.956;9.076;2023-02-01T09:52:57;5.47;;;3.45;;
63714;SDS011;49858;48.956;9.076;2023-02-01T09:55:30;6.93;;;2.22;;
63714;SDS011;49858;48.956;9.076;2023-02-01T10:00:35;11.15;;;3.10;;
63714;SDS011;49858;48.956;9.076;2023-02-01T10:03:04;12.05;;;3.90;;
63714;SDS011;49858;48.956;9.076;2023-02-01T10:05:44;7.17;;;2.30;;
63714;SDS011;49858;48.956;9.076;2023-02-01T10:08:25;12.35;;;4.30;;
63714;SDS011;49858;48.956;9.076;2023-02-01T10:11:08;7.40;;;3.30;;
63714;SDS011;49858;48.956;9.076;2023-02-01T10:13:52;11.85;;;3.05;;
63714;SDS011;49858;48.956;9.076;2023-02-01T10:16:31;9.43;;;3.40;;
63714;SDS011;49858;48.956;9.076;2023-02-01T10:19:21;11.10;;;3.97;;
63714;SDS011;49858;48.956;9.076;2023-02-01T10:22:01;9.20;;;3.65;;
63714;SDS011;49858;48.956;9.076;2023-02-01T10:24:36;15.02;;;4.97;;
63714;SDS011;49858;48.956;9.076;2023-02-01T10:27:17;12.50;;;3.85;;
63714;SDS011;49858;48.956;9.076;2023-02-01T10:29:50;11.30;;;2.28;;
63714;SDS011;49858;48.956;9.076;2023-02-01T10:32:22;13.98;;;3.33;;
63714;SDS011;49858;48.956;9.076;2023-02-01T10:34:53;11.07;;;3.53;;
63714;SDS011;49858;48.956;9.076;2023-02-01T10:37:28;12.80;;;3.55;;
63714;SDS011;49858;48.956;9.076;2023-02-01T10:40:00;14.23;;;3.83;;
63714;SDS011;49858;48.956;9.076;2023-02-01T10:42:33;13.45;;;4.22;;
63714;SDS011;49858;48.956;9.076;2023-02-01T10:45:02;12.52;;;4.22;;
63714;SDS011;49858;48.956;9.076;2023-02-01T10:47:34;10.43;;;3.38;;
63714;SDS011;49858;48.956;9.076;2023-02-01T10:50:03;12.98;;;3.70;;
63714;SDS011;49858;48.956;9.076;2023-02-01T10:52:43;13.85;;;3.83;;
63714;SDS011;49858;48.956;9.076;2023-02-01T10:58:16;6.82;;;2.92;;
63714;SDS011;49858;48.956;9.076;2023-02-01T11:00:48;10.27;;;3.55;;
63714;SDS011;49858;48.956;9.076;2023-02-01T11:03:34;14.63;;;4.65;;
63714;SDS011;49858;48.956;9.076;2023-02-01T11:06:09;21.13;;;5.53;;
63714;SDS011;49858;48.956;9.076;2023-02-01T11:08:45;16.23;;;4.85;;
63714;SDS011;49858;48.956;9.076;2023-02-01T11:11:16;17.02;;;4.70;;
63714;SDS011;49858;48.956;9.076;2023-02-01T11:13:45;12.45;;;4.00;;
63714;SDS011;49858;48.956;9.076;2023-02-01T11:18:55;10.48;;;3.80;;
63714;SDS011;49858;48.956;9.076;2023-02-01T11:21:25;11.68;;;3.80;;
63714;SDS011;49858;48.956;9.076;2023-02-01T11:23:54;11.68;;;4.35;;
63714;SDS011;49858;48.956;9.076;2023-02-01T11:26:23;12.70;;;4.15;;
63714;SDS011;49858;48.956;9.076;2023-02-01T11:28:54;7.78;;;3.13;;
63714;SDS011;49858;48.956;9.076;2023-02-01T11:31:28;20.23;;;3.83;;
63714;SDS011;49858;48.956;9.076;2023-02-01T11:33:58;16.35;;;4.68;;
63714;SDS011;49858;48.956;9.076;2023-02-01T11:36:32;13.85;;;4.32;;
63714;SDS011;49858;48.956;9.076;2023-02-01T11:39:14;15.90;;;4.35;;
63714;SDS011;49858;48.956;9.076;2023-02-01T11:41:55;8.95;;;3.40;;
63714;SDS011;49858;48.956;9.076;2023-02-01T11:44:28;13.55;;;3.90;;
63714;SDS011;49858;48.956;9.076;2023-02-01T11:49:54;11.55;;;3.90;;
63714;SDS011;49858;48.956;9.076;2023-02-01T11:52:33;10.63;;;3.58;;
63714;SDS011;49858;48.956;9.076;2023-02-01T11:55:17;17.55;;;4.57;;
63714;SDS011;49858;48.956;9.076;2023-02-01T11:58:01;13.15;;;3.47;;
63714;SDS011;49858;48.956;9.076;2023-02-01T12:00:45;7.82;;;2.90;;
63714;SDS011;49858;48.956;9.076;2023-02-01T12:06:22;13.45;;;3.28;;
63714;SDS011;49858;48.956;9.076;2023-02-01T12:09:05;10.50;;;3.55;;
63714;SDS011;49858;48.956;9.076;2023-02-01T12:11:46;15.70;;;3.55;;
63714;SDS011;49858;48.956;9.076;2023-02-01T12:14:26;17.27;;;4.38;;
63714;SDS011;49858;48.956;9.076;2023-02-01T12:20:31;7.60;;;3.15;;
63714;SDS011;49858;48.956;9.076;2023-02-01T12:23:17;8.10;;;3.03;;
63714;SDS011;49858;48.956;9.076;2023-02-01T12:25:57;5.80;;;2.55;;
63714;SDS011;49858;48.956;9.076;2023-02-01T12:28:41;11.80;;;4.35;;
63714;SDS011;49858;48.956;9.076;2023-02-01T12:34:47;11.75;;;4.15;;
63714;SDS011;49858;48.956;9.076;2023-02-01T12:37:27;5.18;;;2.70;;
63714;SDS011;49858;48.956;9.076;2023-02-01T12:40:12;9.70;;;3.55;;
63714;SDS011;49858;48.956;9.076;2023-02-01T12:42:51;15.13;;;3.50;;
63714;SDS011;49858;48.956;9.076;2023-02-01T12:45:26;8.73;;;3.00;;
63714;SDS011;49858;48.956;9.076;2023-02-01T12:48:02;13.65;;;4.00;;
63714;SDS011;49858;48.956;9.076;2023-02-01T12:50:40;10.40;;;3.38;;
63714;SDS011;49858;48.956;9.076;2023-02-01T12:53:15;8.77;;;2.80;;
63714;SDS011;49858;48.956;9.076;2023-02-01T12:55:49;8.60;;;2.25;;
63714;SDS011;49858;48.956;9.076;2023-02-01T12:58:21;9.18;;;3.40;;
63714;SDS011;49858;48.956;9.076;2023-02-01T13:00:54;10.65;;;3.50;;
63714;SDS011;49858;48.956;9.076;2023-02-01T13:03:29;15.63;;;4.13;;
63714;SDS011;49858;48.956;9.076;2023-02-01T13:06:05;13.57;;;4.93;;
63714;SDS011;49858;48.956;9.076;2023-02-01T13:08:41;10.13;;;4.68;;
63714;SDS011;49858;48.956;9.076;2023-02-01T13:11:13;13.70;;;4.25;;
63714;SDS011;49858;48.956;9.076;2023-02-01T13:13:56;14.10;;;4.22;;
63714;SDS011;49858;48.956;9.076;2023-02-01T13:16:32;10.60;;;4.00;;
63714;SDS011;49858;48.956;9.076;2023-02-01T13:19:05;13.90;;;4.20;;
63714;SDS011;49858;48.956;9.076;2023-02-01T13:21:41;9.32;;;3.05;;
63714;SDS011;49858;48.956;9.076;2023-02-01T13:24:20;12.10;;;4.45;;
63714;SDS011;49858;48.956;9.076;2023-02-01T13:26:57;5.18;;;2.38;;
63714;SDS011;49858;48.956;9.076;2023-02-01T13:29:25;11.32;;;4.22;;
63714;SDS011;49858;48.956;9.076;2023-02-01T13:31:58;8.30;;;2.92;;
63714;SDS011;49858;48.956;9.076;2023-02-01T13:35:23;9.50;;;3.90;;
63714;SDS011;49858;48.956;9.076;2023-02-01T13:41:10;13.57;;;3.58;;
63714;SDS011;49858;48.956;9.076;2023-02-01T13:43:54;12.80;;;3.88;;
63714;SDS011;49858;48.956;9.076;2023-02-01T13:46:25;13.90;;;4.18;;
63714;SDS011;49858;48.956;9.076;2023-02-01T13:48:54;9.45;;;3.35;;
63714;SDS011;49858;48.956;9.076;2023-02-01T13:51:35;8.32;;;3.15;;
63714;SDS011;49858;48.956;9.076;2023-02-01T13:54:05;11.65;;;4.38;;
63714;SDS011;49858;48.956;9.076;2023-02-01T13:56:41;11.77;;;4.20;;
63714;SDS011;49858;48.956;9.076;2023-02-01T14:08:46;10.07;;;3.35;;
63714;SDS011;49858;48.956;9.076;2023-02-01T14:11:42;10.57;;;3.30;;
63714;SDS011;49858;48.956;9.076;2023-02-01T14:23:22;12.70;;;3.40;;
63714;SDS011;49858;48.956;9.076;2023-02-01T14:26:06;12.45;;;3.33;;
63714;SDS011;49858;48.956;9.076;2023-02-01T14:28:40;8.68;;;3.45;;
63714;SDS011;49858;48.956;9.076;2023-02-01T14:33:55;10.85;;;3.55;;
63714;SDS011;49858;48.956;9.076;2023-02-01T14:36:26;11.15;;;4.38;;
63714;SDS011;49858;48.956;9.076;2023-02-01T14:39:16;10.15;;;3.33;;
63714;SDS011;49858;48.956;9.076;2023-02-01T14:41:48;16.20;;;4.07;;
63714;SDS011;49858;48.956;9.076;2023-02-01T14:44:33;11.55;;;3.38;;
63714;SDS011;49858;48.956;9.076;2023-02-01T14:52:50;14.13;;;3.75;;
63714;SDS011;49858;48.956;9.076;2023-02-01T14:55:27;10.88;;;3.05;;
63714;SDS011;49858;48.956;9.076;2023-02-01T14:58:01;6.50;;;2.38;;
63714;SDS011;49858;48.956;9.076;2023-02-01T15:00:34;9.45;;;3.70;;
63714;SDS011;49858;48.956;9.076;2023-02-01T15:03:29;7.55;;;3.42;;
63714;SDS011;49858;48.956;9.076;2023-02-01T15:06:13;19.17;;;4.20;;
63714;SDS011;49858;48.956;9.076;2023-02-01T15:08:52;14.43;;;3.58;;
63714;SDS011;49858;48.956;9.076;2023-02-01T15:11:22;9.90;;;2.78;;
63714;SDS011;49858;48.956;9.076;2023-02-01T15:13:50;7.90;;;2.80;;
63714;SDS011;49858;48.956;9.076;2023-02-01T15:16:23;8.50;;;3.03;;
63714;SDS011;49858;48.956;9.076;2023-02-01T15:19:08;10.63;;;3.17;;
63714;SDS011;49858;48.956;9.076;2023-02-01T15:21:42;13.65;;;3.30;;
63714;SDS011;49858;48.956;9.076;2023-02-01T15:24:13;15.13;;;4.18;;
63714;SDS011;49858;48.956;9.076;2023-02-01T15:26:46;8.18;;;3.03;;
63714;SDS011;49858;48.956;9.076;2023-02-01T15:29:14;13.30;;;3.22;;
63714;SDS011;49858;48.956;9.076;2023-02-01T15:31:45;9.05;;;3.00;;
63714;SDS011;49858;48.956;9.076;2023-02-01T15:34:15;13.70;;;3.83;;
63714;SDS011;49858;48.956;9.076;2023-02-01T15:36:44;9.45;;;2.92;;
63714;SDS011;49858;48.956;9.076;2023-02-01T15:39:27;12.40;;;3.80;;
63714;SDS011;49858;48.956;9.076;2023-02-01T15:41:58;9.60;;;2.45;;
63714;SDS011;49858;48.956;9.076;2023-02-01T15:44:32;14.15;;;3.30;;
63714;SDS011;49858;48.956;9.076;2023-02-01T15:47:07;12.65;;;3.38;;
63714;SDS011;49858;48.956;9.076;2023-02-01T15:49:43;12.57;;;3.72;;
63714;SDS011;49858;48.956;9.076;2023-02-01T15:52:17;12.88;;;3.83;;
63714;SDS011;49858;48.956;9.076;2023-02-01T15:54:50;13.05;;;3.72;;
63714;SDS011;49858;48.956;9.076;2023-02-01T15:57:23;9.93;;;2.90;;
63714;SDS011;49858;48.956;9.076;2023-02-01T15:59:57;8.45;;;2.83;;
63714;SDS011;49858;48.956;9.076;2023-02-01T16:02:41;12.07;;;3.53;;
63714;SDS011;49858;48.956;9.076;2023-02-01T16:05:25;14.63;;;3.83;;
63714;SDS011;49858;48.956;9.076;2023-02-01T16:08:01;6.15;;;2.45;;
63714;SDS011;49858;48.956;9.076;2023-02-01T16:10:31;13.88;;;3.33;;
63714;SDS011;49858;48.956;9.076;2023-02-01T16:13:05;10.63;;;2.92;;
63714;SDS011;49858;48.956;9.076;2023-02-01T16:15:33;10.18;;;3.03;;